sensor_id;sensor_type;location;lat;lon;timestamp;pressure;altitude;pressure_sealevel;temperature;humidity
38620;BME280;24376;51.986;4.662;2022-12-04T00:00:49;105404.03;;;0.74;100.00
38620;BME280;24376;51.986;4.662;2022-12-04T00:03:14;105407.78;;;0.76;100.00
38620;BME280;24376;51.986;4.662;2022-12-04T00:05:39;105404.13;;;0.68;100.00
38620;BME280;24376;51.986;4.662;2022-12-04T00:08:05;105406.28;;;0.65;100.00
38620;BME280;24376;51.986;4.662;2022-12-04T00:10:30;105414.94;;;0.66;100.00
38620;BME280;24376;51.986;4.662;2022-12-04T00:12:55;105435.25;;;0.75;100.00
38620;BME280;24376;51.986;4.662;2022-12-04T00:15:20;105438.50;;;0.74;100.00
38620;BME280;24376;51.986;4.662;2022-12-04T00:17:46;105434.28;;;0.75;100.00
38620;BME280;24376;51.986;4.662;2022-12-04T00:20:12;105418.75;;;0.62;100.00
38620;BME280;24376;51.986;4.662;2022-12-04T00:22:37;105437.25;;;0.65;100.00
38620;BME280;24376;51.986;4.662;2022-12-04T00:25:02;105452.72;;;0.65;100.00
38620;BME280;24376;51.986;4.662;2022-12-04T00:27:27;105451.16;;;0.60;100.00
38620;BME280;24376;51.986;4.662;2022-12-04T00:29:53;105476.41;;;0.63;100.00
38620;BME280;24376;51.986;4.662;2022-12-04T00:32:18;105489.78;;;0.66;100.00
38620;BME280;24376;51.986;4.662;2022-12-04T00:34:43;105497.44;;;0.71;100.00
38620;BME280;24376;51.986;4.662;2022-12-04T00:37:08;105485.53;;;0.66;100.00
38620;BME280;24376;51.986;4.662;2022-12-04T00:39:34;105483.97;;;0.61;100.00
38620;BME280;24376;51.986;4.662;2022-12-04T00:41:59;105494.72;;;0.64;100.00
38620;BME280;24376;51.986;4.662;2022-12-04T00:44:24;105496.91;;;0.74;100.00
38620;BME280;24376;51.986;4.662;2022-12-04T00:46:49;105477.66;;;0.77;100.00
38620;BME280;24376;51.986;4.662;2022-12-04T00:49:14;105463.19;;;0.72;100.00
38620;BME280;24376;51.986;4.662;2022-12-04T00:51:40;105453.78;;;0.73;100.00
38620;BME280;24376;51.986;4.662;2022-12-04T00:54:05;105430.06;;;0.75;100.00
38620;BME280;24376;51.986;4.662;2022-12-04T00:56:30;105417.25;;;0.70;100.00
38620;BME280;24376;51.986;4.662;2022-12-04T00:58:56;105431.63;;;0.80;100.00
38620;BME280;24376;51.986;4.662;2022-12-04T01:01:22;105410.03;;;0.80;100.00
38620;BME280;24376;51.986;4.662;2022-12-04T01:03:48;105403.06;;;0.92;100.00
38620;BME280;24376;51.986;4.662;2022-12-04T01:06:24;105389.59;;;1.00;100.00
38620;BME280;24376;51.986;4.662;2022-12-04T01:08:50;105367.66;;;0.91;100.00
38620;BME280;24376;51.986;4.662;2022-12-04T01:11:15;105360.53;;;0.83;100.00
38620;BME280;24376;51.986;4.662;2022-12-04T01:13:41;105364.13;;;0.77;100.00
38620;BME280;24376;51.986;4.662;2022-12-04T01:16:06;105365.38;;;0.87;100.00
38620;BME280;24376;51.986;4.662;2022-12-04T01:18:31;105360.13;;;0.92;100.00
38620;BME280;24376;51.986;4.662;2022-12-04T01:20:56;105336.28;;;0.88;100.00
38620;BME280;24376;51.986;4.662;2022-12-04T01:23:22;105321.09;;;0.84;100.00
38620;BME280;24376;51.986;4.662;2022-12-04T01:25:51;105325.13;;;0.82;100.00
38620;BME280;24376;51.986;4.662;2022-12-04T01:28:16;105329.25;;;0.87;100.00
38620;BME280;24376;51.986;4.662;2022-12-04T01:30:41;105330.50;;;0.83;100.00
38620;BME280;24376;51.986;4.662;2022-12-04T01:33:06;105343.09;;;0.87;100.00
38620;BME280;24376;51.986;4.662;2022-12-04T01:35:32;105330.28;;;0.82;100.00
38620;BME280;24376;51.986;4.662;2022-12-04T01:37:57;105335.84;;;0.85;100.00
38620;BME280;24376;51.986;4.662;2022-12-04T01:40:22;105335.66;;;0.83;100.00
38620;BME280;24376;51.986;4.662;2022-12-04T01:42:47;105341.94;;;0.85;100.00
38620;BME280;24376;51.986;4.662;2022-12-04T01:48:13;105350.22;;;0.83;100.00
38620;BME280;24376;51.986;4.662;2022-12-04T01:50:40;105354.66;;;0.84;100.00
38620;BME280;24376;51.986;4.662;2022-12-04T01:53:06;105359.81;;;0.84;100.00
38620;BME280;24376;51.986;4.662;2022-12-04T01:55:31;105379.84;;;0.92;100.00
38620;BME280;24376;51.986;4.662;2022-12-04T01:57:57;105354.53;;;0.76;100.00
38620;BME280;24376;51.986;4.662;2022-12-04T02:00:23;105372.72;;;0.84;100.00
38620;BME280;24376;51.986;4.662;2022-12-04T02:02:48;105367.44;;;0.76;100.00
38620;BME280;24376;51.986;4.662;2022-12-04T02:05:15;105401.09;;;0.84;100.00
38620;BME280;24376;51.986;4.662;2022-12-04T02:07:41;105418.88;;;0.88;100.00
38620;BME280;24376;51.986;4.662;2022-12-04T02:10:08;105415.13;;;0.86;100.00
38620;BME280;24376;51.986;4.662;2022-12-04T02:20:06;105404.06;;;0.87;100.00
38620;BME280;24376;51.986;4.662;2022-12-04T02:30:13;105426.03;;;0.77;100.00
38620;BME280;24376;51.986;4.662;2022-12-04T02:32:42;105419.50;;;0.74;100.00
38620;BME280;24376;51.986;4.662;2022-12-04T02:35:21;105436.38;;;0.77;100.00
38620;BME280;24376;51.986;4.662;2022-12-04T02:37:51;105451.97;;;0.85;100.00
38620;BME280;24376;51.986;4.662;2022-12-04T02:45:09;105460.72;;;0.79;100.00
38620;BME280;24376;51.986;4.662;2022-12-04T02:47:35;105474.78;;;0.82;100.00
38620;BME280;24376;51.986;4.662;2022-12-04T02:50:04;105453.38;;;0.70;100.00
38620;BME280;24376;51.986;4.662;2022-12-04T02:52:32;105476.34;;;0.87;100.00
38620;BME280;24376;51.986;4.662;2022-12-04T02:55:01;105487.38;;;0.86;100.00
38620;BME280;24376;51.986;4.662;2022-12-04T02:57:29;105472.06;;;0.74;100.00
38620;BME280;24376;51.986;4.662;2022-12-04T02:59:55;105478.13;;;0.75;100.00
38620;BME280;24376;51.986;4.662;2022-12-04T03:02:27;105474.94;;;0.70;100.00
38620;BME280;24376;51.986;4.662;2022-12-04T03:04:56;105498.72;;;0.80;100.00
38620;BME280;24376;51.986;4.662;2022-12-04T03:07:29;105490.28;;;0.82;100.00
38620;BME280;24376;51.986;4.662;2022-12-04T03:10:00;105486.53;;;0.79;100.00
38620;BME280;24376;51.986;4.662;2022-12-04T03:12:37;105490.84;;;0.73;100.00
38620;BME280;24376;51.986;4.662;2022-12-04T03:15:05;105489.25;;;0.68;100.00
38620;BME280;24376;51.986;4.662;2022-12-04T03:17:35;105497.84;;;0.74;100.00
38620;BME280;24376;51.986;4.662;2022-12-04T03:20:04;105506.16;;;0.85;100.00
38620;BME280;24376;51.986;4.662;2022-12-04T03:22:30;105512.34;;;0.79;100.00
38620;BME280;24376;51.986;4.662;2022-12-04T03:24:58;105507.75;;;0.71;100.00
38620;BME280;24376;51.986;4.662;2022-12-04T03:30:13;105548.66;;;0.81;100.00
38620;BME280;24376;51.986;4.662;2022-12-04T03:37:45;105565.25;;;0.70;100.00
38620;BME280;24376;51.986;4.662;2022-12-04T03:40:36;105549.59;;;0.63;100.00
38620;BME280;24376;51.986;4.662;2022-12-04T03:43:01;105557.56;;;0.65;100.00
38620;BME280;24376;51.986;4.662;2022-12-04T03:45:35;105565.94;;;0.69;100.00
38620;BME280;24376;51.986;4.662;2022-12-04T03:48:05;105578.16;;;0.70;100.00
38620;BME280;24376;51.986;4.662;2022-12-04T03:50:36;105574.41;;;0.68;100.00
38620;BME280;24376;51.986;4.662;2022-12-04T03:53:11;105590.31;;;0.71;100.00
38620;BME280;24376;51.986;4.662;2022-12-04T03:55:45;105567.81;;;0.70;100.00
38620;BME280;24376;51.986;4.662;2022-12-04T03:58:12;105569.09;;;0.79;100.00
38620;BME280;24376;51.986;4.662;2022-12-04T04:00:41;105573.41;;;0.73;100.00
38620;BME280;24376;51.986;4.662;2022-12-04T04:03:10;105565.44;;;0.72;100.00
38620;BME280;24376;51.986;4.662;2022-12-04T04:05:40;105570.53;;;0.77;100.00
38620;BME280;24376;51.986;4.662;2022-12-04T04:08:06;105589.03;;;0.80;100.00
38620;BME280;24376;51.986;4.662;2022-12-04T04:10:51;105582.16;;;0.87;100.00
38620;BME280;24376;51.986;4.662;2022-12-04T04:13:19;105578.03;;;0.82;100.00
38620;BME280;24376;51.986;4.662;2022-12-04T04:16:04;105563.94;;;0.79;100.00
38620;BME280;24376;51.986;4.662;2022-12-04T04:18:49;105566.25;;;0.84;100.00
38620;BME280;24376;51.986;4.662;2022-12-04T04:21:33;105578.03;;;0.82;100.00
38620;BME280;24376;51.986;4.662;2022-12-04T04:24:31;105579.88;;;0.83;100.00
38620;BME280;24376;51.986;4.662;2022-12-04T04:26:58;105590.91;;;0.82;100.00
38620;BME280;24376;51.986;4.662;2022-12-04T04:29:23;105582.94;;;0.80;100.00
38620;BME280;24376;51.986;4.662;2022-12-04T04:31:51;105594.19;;;0.80;100.00
38620;BME280;24376;51.986;4.662;2022-12-04T04:34:29;105597.50;;;0.79;100.00
38620;BME280;24376;51.986;4.662;2022-12-04T04:41:55;105620.28;;;0.76;100.00
38620;BME280;24376;51.986;4.662;2022-12-04T04:44:26;105617.72;;;0.76;100.00
38620;BME280;24376;51.986;4.662;2022-12-04T04:46:57;105620.28;;;0.76;100.00
38620;BME280;24376;51.986;4.662;2022-12-04T04:49:24;105639.72;;;0.80;100.00
38620;BME280;24376;51.986;4.662;2022-12-04T04:51:51;105643.22;;;0.80;100.00
38620;BME280;24376;51.986;4.662;2022-12-04T04:54:17;105652.84;;;0.82;100.00
38620;BME280;24376;51.986;4.662;2022-12-04T04:56:44;105667.31;;;0.87;100.00
38620;BME280;24376;51.986;4.662;2022-12-04T04:59:09;105667.31;;;0.87;100.00
38620;BME280;24376;51.986;4.662;2022-12-04T05:01:35;105680.22;;;0.87;100.00
38620;BME280;24376;51.986;4.662;2022-12-04T05:04:04;105676.56;;;0.79;100.00
38620;BME280;24376;51.986;4.662;2022-12-04T05:06:30;105688.31;;;0.77;100.00
38620;BME280;24376;51.986;4.662;2022-12-04T05:08:56;105698.34;;;0.81;100.00
38620;BME280;24376;51.986;4.662;2022-12-04T05:11:21;105704.72;;;0.77;100.00
38620;BME280;24376;51.986;4.662;2022-12-04T05:13:46;105719.94;;;0.82;100.00
38620;BME280;24376;51.986;4.662;2022-12-04T05:16:13;105721.66;;;0.75;100.00
38620;BME280;24376;51.986;4.662;2022-12-04T05:18:58;105740.34;;;0.80;100.00
38620;BME280;24376;51.986;4.662;2022-12-04T05:21:42;105735.06;;;0.67;100.00
38620;BME280;24376;51.986;4.662;2022-12-04T05:24:07;105768.53;;;0.78;100.00
38620;BME280;24376;51.986;4.662;2022-12-04T05:26:32;105776.72;;;0.82;100.00
38620;BME280;24376;51.986;4.662;2022-12-04T05:28:58;105790.78;;;0.84;100.00
38620;BME280;24376;51.986;4.662;2022-12-04T05:31:23;105797.63;;;0.77;100.00
38620;BME280;24376;51.986;4.662;2022-12-04T05:33:48;105808.84;;;0.84;100.00
38620;BME280;24376;51.986;4.662;2022-12-04T05:36:16;105831.09;;;0.89;100.00
38620;BME280;24376;51.986;4.662;2022-12-04T05:38:41;105819.16;;;0.84;100.00
38620;BME280;24376;51.986;4.662;2022-12-04T05:41:06;105830.16;;;0.88;100.00
38620;BME280;24376;51.986;4.662;2022-12-04T05:43:32;105819.22;;;0.78;100.00
38620;BME280;24376;51.986;4.662;2022-12-04T05:46:01;105819.63;;;0.81;100.00
38620;BME280;24376;51.986;4.662;2022-12-04T05:51:12;105844.94;;;0.89;100.00
38620;BME280;24376;51.986;4.662;2022-12-04T05:53:37;105832.28;;;0.85;100.00
38620;BME280;24376;51.986;4.662;2022-12-04T05:56:02;105835.78;;;0.86;100.00
38620;BME280;24376;51.986;4.662;2022-12-04T05:58:28;105827.19;;;0.74;100.00
38620;BME280;24376;51.986;4.662;2022-12-04T06:00:53;105835.63;;;0.78;100.00
38620;BME280;24376;51.986;4.662;2022-12-04T06:03:25;105837.47;;;0.79;100.00
38620;BME280;24376;51.986;4.662;2022-12-04T06:05:50;105838.19;;;0.78;100.00
38620;BME280;24376;51.986;4.662;2022-12-04T06:08:18;105835.69;;;0.67;100.00
38620;BME280;24376;51.986;4.662;2022-12-04T06:10:43;105872.22;;;0.82;100.00
38620;BME280;24376;51.986;4.662;2022-12-04T06:13:11;105864.00;;;0.78;100.00
38620;BME280;24376;51.986;4.662;2022-12-04T06:15:37;105859.03;;;0.86;100.00
38620;BME280;24376;51.986;4.662;2022-12-04T06:18:03;105859.91;;;0.92;100.00
38620;BME280;24376;51.986;4.662;2022-12-04T06:20:28;105844.22;;;0.90;100.00
38620;BME280;24376;51.986;4.662;2022-12-04T06:22:53;105829.47;;;0.84;100.00
38620;BME280;24376;51.986;4.662;2022-12-04T06:25:18;105823.81;;;0.86;100.00
38620;BME280;24376;51.986;4.662;2022-12-04T06:27:43;105824.22;;;0.95;100.00
38620;BME280;24376;51.986;4.662;2022-12-04T06:30:09;105818.13;;;0.94;100.00
38620;BME280;24376;51.986;4.662;2022-12-04T06:32:34;105811.41;;;0.84;100.00
38620;BME280;24376;51.986;4.662;2022-12-04T06:35:02;105811.84;;;0.87;100.00
38620;BME280;24376;51.986;4.662;2022-12-04T06:37:28;105810.69;;;0.85;100.00
38620;BME280;24376;51.986;4.662;2022-12-04T06:39:53;105821.66;;;0.95;100.00
38620;BME280;24376;51.986;4.662;2022-12-04T06:42:18;105820.88;;;1.01;100.00
38620;BME280;24376;51.986;4.662;2022-12-04T06:44:44;105802.16;;;0.97;100.00
38620;BME280;24376;51.986;4.662;2022-12-04T06:47:09;105793.69;;;0.98;100.00
38620;BME280;24376;51.986;4.662;2022-12-04T06:49:34;105783.19;;;0.91;100.00
38620;BME280;24376;51.986;4.662;2022-12-04T06:52:00;105791.81;;;0.97;100.00
38620;BME280;24376;51.986;4.662;2022-12-04T06:54:25;105786.22;;;0.94;100.00
38620;BME280;24376;51.986;4.662;2022-12-04T06:56:50;105783.66;;;0.94;100.00
38620;BME280;24376;51.986;4.662;2022-12-04T06:59:15;105781.06;;;0.94;100.00
38620;BME280;24376;51.986;4.662;2022-12-04T07:04:29;105787.00;;;0.87;100.00
38620;BME280;24376;51.986;4.662;2022-12-04T07:06:54;105788.19;;;0.84;100.00
38620;BME280;24376;51.986;4.662;2022-12-04T07:09:19;105793.91;;;0.75;100.00
38620;BME280;24376;51.986;4.662;2022-12-04T07:11:44;105799.06;;;0.75;100.00
38620;BME280;24376;51.986;4.662;2022-12-04T07:14:10;105813.38;;;0.73;100.00
38620;BME280;24376;51.986;4.662;2022-12-04T07:16:36;105825.34;;;0.73;100.00
38620;BME280;24376;51.986;4.662;2022-12-04T07:19:02;105835.13;;;0.81;100.00
38620;BME280;24376;51.986;4.662;2022-12-04T07:21:29;105845.69;;;0.83;100.00
38620;BME280;24376;51.986;4.662;2022-12-04T07:23:58;105838.69;;;0.76;100.00
38620;BME280;24376;51.986;4.662;2022-12-04T07:26:24;105849.88;;;0.88;100.00
38620;BME280;24376;51.986;4.662;2022-12-04T07:28:49;105851.94;;;0.90;100.00
38620;BME280;24376;51.986;4.662;2022-12-04T07:31:17;105840.53;;;0.83;100.00
38620;BME280;24376;51.986;4.662;2022-12-04T07:33:43;105853.38;;;0.88;100.00
38620;BME280;24376;51.986;4.662;2022-12-04T07:36:10;105846.38;;;0.87;100.00
38620;BME280;24376;51.986;4.662;2022-12-04T07:38:36;105838.84;;;0.89;100.00
38620;BME280;24376;51.986;4.662;2022-12-04T07:41:02;105841.38;;;0.94;100.00
38620;BME280;24376;51.986;4.662;2022-12-04T07:43:27;105830.38;;;0.90;100.00
38620;BME280;24376;51.986;4.662;2022-12-04T07:45:53;105822.78;;;0.97;100.00
38620;BME280;24376;51.986;4.662;2022-12-04T07:48:18;105811.78;;;0.92;100.00
38620;BME280;24376;51.986;4.662;2022-12-04T07:50:43;105810.16;;;0.93;100.00
38620;BME280;24376;51.986;4.662;2022-12-04T07:53:08;105813.41;;;0.97;100.00
38620;BME280;24376;51.986;4.662;2022-12-04T07:55:34;105820.22;;;0.97;100.00
38620;BME280;24376;51.986;4.662;2022-12-04T07:57:59;105806.88;;;0.94;100.00
38620;BME280;24376;51.986;4.662;2022-12-04T08:03:10;105801.44;;;0.98;100.00
38620;BME280;24376;51.986;4.662;2022-12-04T08:05:35;105795.16;;;0.90;100.00
38620;BME280;24376;51.986;4.662;2022-12-04T08:08:00;105800.53;;;0.92;100.00
38620;BME280;24376;51.986;4.662;2022-12-04T08:10:25;105811.13;;;0.93;100.00
38620;BME280;24376;51.986;4.662;2022-12-04T08:12:50;105796.97;;;0.97;100.00
38620;BME280;24376;51.986;4.662;2022-12-04T08:15:16;105786.56;;;1.08;100.00
38620;BME280;24376;51.986;4.662;2022-12-04T08:17:41;105772.50;;;1.06;100.00
38620;BME280;24376;51.986;4.662;2022-12-04T08:20:06;105751.91;;;1.00;100.00
38620;BME280;24376;51.986;4.662;2022-12-04T08:22:31;105751.50;;;0.92;100.00
38620;BME280;24376;51.986;4.662;2022-12-04T08:24:57;105751.50;;;0.92;100.00
38620;BME280;24376;51.986;4.662;2022-12-04T08:27:22;105758.94;;;1.01;100.00
38620;BME280;24376;51.986;4.662;2022-12-04T08:29:47;105748.34;;;1.05;100.00
38620;BME280;24376;51.986;4.662;2022-12-04T08:32:12;105752.78;;;1.06;100.00
38620;BME280;24376;51.986;4.662;2022-12-04T08:34:37;105734.03;;;1.02;100.00
38620;BME280;24376;51.986;4.662;2022-12-04T08:37:03;105746.13;;;1.14;100.00
38620;BME280;24376;51.986;4.662;2022-12-04T08:39:28;105747.28;;;1.16;100.00
38620;BME280;24376;51.986;4.662;2022-12-04T08:41:53;105734.38;;;1.16;100.00
38620;BME280;24376;51.986;4.662;2022-12-04T08:44:18;105725.91;;;1.17;100.00
38620;BME280;24376;51.986;4.662;2022-12-04T08:46:43;105718.59;;;1.20;100.00
38620;BME280;24376;51.986;4.662;2022-12-04T08:49:08;105709.44;;;1.22;100.00
38620;BME280;24376;51.986;4.662;2022-12-04T08:51:34;105693.88;;;1.28;100.00
38620;BME280;24376;51.986;4.662;2022-12-04T08:54:01;105668.09;;;1.22;100.00
38620;BME280;24376;51.986;4.662;2022-12-04T08:56:26;105679.16;;;1.40;100.00
38620;BME280;24376;51.986;4.662;2022-12-04T08:58:54;105642.63;;;1.31;100.00
38620;BME280;24376;51.986;4.662;2022-12-04T09:01:19;105622.50;;;1.28;100.00
38620;BME280;24376;51.986;4.662;2022-12-04T09:03:44;105635.94;;;1.39;100.00
38620;BME280;24376;51.986;4.662;2022-12-04T09:06:10;105633.09;;;1.43;100.00
38620;BME280;24376;51.986;4.662;2022-12-04T09:08:36;105614.72;;;1.47;100.00
38620;BME280;24376;51.986;4.662;2022-12-04T09:11:24;105601.53;;;1.51;100.00
38620;BME280;24376;51.986;4.662;2022-12-04T09:13:47;105578.84;;;1.43;100.00
38620;BME280;24376;51.986;4.662;2022-12-04T09:16:14;105555.19;;;1.40;100.00
38620;BME280;24376;51.986;4.662;2022-12-04T09:18:40;105529.91;;;1.31;100.00
38620;BME280;24376;51.986;4.662;2022-12-04T09:21:06;105530.53;;;1.23;100.00
38620;BME280;24376;51.986;4.662;2022-12-04T09:23:32;105576.84;;;1.35;100.00
38620;BME280;24376;51.986;4.662;2022-12-04T09:25:57;105577.13;;;1.30;100.00
38620;BME280;24376;51.986;4.662;2022-12-04T09:28:22;105576.41;;;1.31;100.00
38620;BME280;24376;51.986;4.662;2022-12-04T09:30:55;105559.06;;;1.30;100.00
38620;BME280;24376;51.986;4.662;2022-12-04T09:33:20;105554.75;;;1.37;100.00
38620;BME280;24376;51.986;4.662;2022-12-04T09:35:45;105525.75;;;1.26;100.00
38620;BME280;24376;51.986;4.662;2022-12-04T09:38:10;105561.19;;;1.46;100.00
38620;BME280;24376;51.986;4.662;2022-12-04T09:40:38;105541.09;;;1.38;100.00
38620;BME280;24376;51.986;4.662;2022-12-04T09:45:34;105516.84;;;1.43;100.00
38620;BME280;24376;51.986;4.662;2022-12-04T09:48:04;105514.16;;;1.48;100.00
38620;BME280;24376;51.986;4.662;2022-12-04T09:55:26;105487.31;;;1.53;100.00
38620;BME280;24376;51.986;4.662;2022-12-04T09:57:53;105479.03;;;1.56;100.00
38620;BME280;24376;51.986;4.662;2022-12-04T10:00:20;105472.22;;;1.56;100.00
38620;BME280;24376;51.986;4.662;2022-12-04T10:02:50;105460.66;;;1.60;100.00
38620;BME280;24376;51.986;4.662;2022-12-04T10:05:18;105435.56;;;1.59;100.00
38620;BME280;24376;51.986;4.662;2022-12-04T10:15:31;105407.31;;;1.73;100.00
38620;BME280;24376;51.986;4.662;2022-12-04T10:20:27;105354.72;;;1.60;100.00
38620;BME280;24376;51.986;4.662;2022-12-04T10:25:21;105343.56;;;1.67;100.00
38620;BME280;24376;51.986;4.662;2022-12-04T10:27:59;105342.41;;;1.77;100.00
38620;BME280;24376;51.986;4.662;2022-12-04T10:30:27;105316.50;;;1.70;100.00
38620;BME280;24376;51.986;4.662;2022-12-04T10:32:59;105313.78;;;1.76;100.00
38620;BME280;24376;51.986;4.662;2022-12-04T10:35:26;105294.88;;;1.70;100.00
38620;BME280;24376;51.986;4.662;2022-12-04T10:40:53;105247.44;;;2.02;100.00
38620;BME280;24376;51.986;4.662;2022-12-04T10:43:40;105237.19;;;2.09;100.00
38620;BME280;24376;51.986;4.662;2022-12-04T10:46:09;105187.84;;;2.07;100.00
38620;BME280;24376;51.986;4.662;2022-12-04T10:48:36;105203.06;;;1.79;100.00
38620;BME280;24376;51.986;4.662;2022-12-04T10:51:03;105235.97;;;2.00;100.00
38620;BME280;24376;51.986;4.662;2022-12-04T10:53:31;105231.59;;;1.86;100.00
38620;BME280;24376;51.986;4.662;2022-12-04T10:56:06;105264.06;;;1.71;100.00
38620;BME280;24376;51.986;4.662;2022-12-04T10:58:31;105339.53;;;1.81;100.00
38620;BME280;24376;51.986;4.662;2022-12-04T11:01:01;105379.09;;;1.62;100.00
38620;BME280;24376;51.986;4.662;2022-12-04T11:03:28;105454.75;;;1.61;100.00
38620;BME280;24376;51.986;4.662;2022-12-04T11:05:55;105485.81;;;1.86;100.00
38620;BME280;24376;51.986;4.662;2022-12-04T11:08:22;105476.63;;;1.89;100.00
38620;BME280;24376;51.986;4.662;2022-12-04T11:11:08;105446.13;;;1.86;100.00
38620;BME280;24376;51.986;4.662;2022-12-04T11:13:35;105420.59;;;1.69;100.00
38620;BME280;24376;51.986;4.662;2022-12-04T11:16:00;105424.72;;;1.87;100.00
38620;BME280;24376;51.986;4.662;2022-12-04T11:18:29;105382.66;;;1.75;100.00
38620;BME280;24376;51.986;4.662;2022-12-04T11:20:56;105388.94;;;1.65;100.00
38620;BME280;24376;51.986;4.662;2022-12-04T11:23:22;105412.59;;;1.55;100.00
38620;BME280;24376;51.986;4.662;2022-12-04T11:25:49;105433.16;;;1.48;100.00
38620;BME280;24376;51.986;4.662;2022-12-04T11:28:16;105456.53;;;1.68;100.00
38620;BME280;24376;51.986;4.662;2022-12-04T11:30:46;105446.28;;;1.62;100.00
38620;BME280;24376;51.986;4.662;2022-12-04T11:33:17;105421.09;;;1.67;100.00
38620;BME280;24376;51.986;4.662;2022-12-04T11:35:49;105399.47;;;1.66;100.00
38620;BME280;24376;51.986;4.662;2022-12-04T11:38:15;105391.63;;;1.59;100.00
38620;BME280;24376;51.986;4.662;2022-12-04T11:40:47;105378.28;;;1.56;100.00
38620;BME280;24376;51.986;4.662;2022-12-04T11:43:15;105377.25;;;1.61;100.00
38620;BME280;24376;51.986;4.662;2022-12-04T11:45:51;105385.94;;;1.62;100.00
38620;BME280;24376;51.986;4.662;2022-12-04T11:48:17;105400.63;;;1.68;100.00
38620;BME280;24376;51.986;4.662;2022-12-04T12:00:46;105375.38;;;1.73;100.00
38620;BME280;24376;51.986;4.662;2022-12-04T12:03:15;105375.09;;;1.77;100.00
38620;BME280;24376;51.986;4.662;2022-12-04T12:06:01;105362.06;;;1.44;100.00
38620;BME280;24376;51.986;4.662;2022-12-04T12:08:33;105397.44;;;1.51;100.00
38620;BME280;24376;51.986;4.662;2022-12-04T12:11:09;105420.88;;;1.40;100.00
38620;BME280;24376;51.986;4.662;2022-12-04T12:13:57;105452.44;;;1.31;100.00
38620;BME280;24376;51.986;4.662;2022-12-04T12:16:28;105491.88;;;1.62;100.00
38620;BME280;24376;51.986;4.662;2022-12-04T12:21:38;105467.59;;;1.67;100.00
38620;BME280;24376;51.986;4.662;2022-12-04T12:24:08;105450.03;;;1.64;100.00
38620;BME280;24376;51.986;4.662;2022-12-04T12:26:41;105425.13;;;1.52;100.00
38620;BME280;24376;51.986;4.662;2022-12-04T12:34:33;105385.84;;;1.54;100.00
38620;BME280;24376;51.986;4.662;2022-12-04T12:36:55;105365.28;;;1.49;100.00
38620;BME280;24376;51.986;4.662;2022-12-04T12:39:24;105353.50;;;1.51;100.00
38620;BME280;24376;51.986;4.662;2022-12-04T12:41:54;105349.28;;;1.51;100.00
38620;BME280;24376;51.986;4.662;2022-12-04T12:46:58;105341.19;;;1.43;100.00
38620;BME280;24376;51.986;4.662;2022-12-04T12:49:35;105377.25;;;1.61;100.00
38620;BME280;24376;51.986;4.662;2022-12-04T12:52:11;105368.16;;;1.45;100.00
38620;BME280;24376;51.986;4.662;2022-12-04T12:54:43;105383.66;;;1.45;100.00
38620;BME280;24376;51.986;4.662;2022-12-04T12:57:17;105389.69;;;1.51;100.00
38620;BME280;24376;51.986;4.662;2022-12-04T12:59:45;105378.63;;;1.52;100.00
38620;BME280;24376;51.986;4.662;2022-12-04T13:04:37;105367.84;;;1.62;100.00
38620;BME280;24376;51.986;4.662;2022-12-04T13:09:38;105312.69;;;1.48;100.00
38620;BME280;24376;51.986;4.662;2022-12-04T13:12:08;105319.47;;;1.60;100.00
38620;BME280;24376;51.986;4.662;2022-12-04T13:14:35;105327.84;;;1.65;100.00
38620;BME280;24376;51.986;4.662;2022-12-04T13:17:04;105298.19;;;1.56;100.00
38620;BME280;24376;51.986;4.662;2022-12-04T13:19:35;105281.28;;;1.58;100.00
38620;BME280;24376;51.986;4.662;2022-12-04T13:27:09;105256.78;;;1.49;100.00
38620;BME280;24376;51.986;4.662;2022-12-04T13:29:40;105265.72;;;1.71;100.00
38620;BME280;24376;51.986;4.662;2022-12-04T13:40:25;105207.41;;;1.73;100.00
38620;BME280;24376;51.986;4.662;2022-12-04T13:42:51;105203.28;;;1.68;100.00
38620;BME280;24376;51.986;4.662;2022-12-04T13:45:24;105196.50;;;1.55;100.00
38620;BME280;24376;51.986;4.662;2022-12-04T13:47:57;105191.56;;;1.44;100.00
38620;BME280;24376;51.986;4.662;2022-12-04T13:50:30;105231.34;;;1.65;100.00
38620;BME280;24376;51.986;4.662;2022-12-04T13:52:56;105217.59;;;1.58;100.00
38620;BME280;24376;51.986;4.662;2022-12-04T13:55:26;105231.53;;;1.66;100.00
38620;BME280;24376;51.986;4.662;2022-12-04T13:57:56;105212.00;;;1.55;100.00
38620;BME280;24376;51.986;4.662;2022-12-04T14:00:34;105213.56;;;1.60;100.00
38620;BME280;24376;51.986;4.662;2022-12-04T14:03:02;105213.75;;;1.62;100.00
38620;BME280;24376;51.986;4.662;2022-12-04T14:05:29;105219.41;;;1.72;100.00
38620;BME280;24376;51.986;4.662;2022-12-04T14:08:40;105207.53;;;1.67;100.00
38620;BME280;24376;51.986;4.662;2022-12-04T14:10:41;105206.69;;;1.74;100.00
38620;BME280;24376;51.986;4.662;2022-12-04T14:13:26;105218.44;;;1.84;100.00
38620;BME280;24376;51.986;4.662;2022-12-04T14:16:05;105163.53;;;1.60;100.00
38620;BME280;24376;51.986;4.662;2022-12-04T14:18:32;105182.13;;;1.70;100.00
38620;BME280;24376;51.986;4.662;2022-12-04T14:20:58;105171.59;;;1.69;100.00
38620;BME280;24376;51.986;4.662;2022-12-04T14:23:25;105163.97;;;1.63;100.00
38620;BME280;24376;51.986;4.662;2022-12-04T14:25:54;105185.31;;;1.75;100.00
38620;BME280;24376;51.986;4.662;2022-12-04T14:28:25;105190.75;;;1.83;100.00
38620;BME280;24376;51.986;4.662;2022-12-04T14:31:02;105175.72;;;1.94;100.00
38620;BME280;24376;51.986;4.662;2022-12-04T14:33:29;105188.66;;;1.28;100.00
38620;BME280;24376;51.986;4.662;2022-12-04T14:36:02;105295.53;;;1.23;100.00
38620;BME280;24376;51.986;4.662;2022-12-04T14:38:28;105365.66;;;1.14;100.00
38620;BME280;24376;51.986;4.662;2022-12-04T14:40:54;105440.97;;;1.17;100.00